sensor_id;sensor_type;location;lat;lon;timestamp;temperature;humidity
23385;DHT22;11865;45.394;10.978;2024-01-16T00:01:08;3.60;99.90
23385;DHT22;11865;45.394;10.978;2024-01-16T00:03:37;3.60;99.90
23385;DHT22;11865;45.394;10.978;2024-01-16T00:06:05;3.60;99.90
23385;DHT22;11865;45.394;10.978;2024-01-16T00:08:34;3.60;99.90
23385;DHT22;11865;45.394;10.978;2024-01-16T00:11:02;3.50;99.90
23385;DHT22;11865;45.394;10.978;2024-01-16T00:13:32;3.30;99.90
23385;DHT22;11865;45.394;10.978;2024-01-16T00:16:02;3.40;99.90
23385;DHT22;11865;45.394;10.978;2024-01-16T00:18:31;3.00;99.90
23385;DHT22;11865;45.394;10.978;2024-01-16T00:21:01;2.70;99.90
23385;DHT22;11865;45.394;10.978;2024-01-16T00:23:29;2.80;99.90
23385;DHT22;11865;45.394;10.978;2024-01-16T00:26:00;3.10;99.90
23385;DHT22;11865;45.394;10.978;2024-01-16T00:28:28;3.30;99.90
23385;DHT22;11865;45.394;10.978;2024-01-16T00:30:55;3.30;99.90
23385;DHT22;11865;45.394;10.978;2024-01-16T00:33:23;3.30;99.90
23385;DHT22;11865;45.394;10.978;2024-01-16T00:35:50;3.00;99.90
23385;DHT22;11865;45.394;10.978;2024-01-16T00:38:18;2.30;99.90
23385;DHT22;11865;45.394;10.978;2024-01-16T00:40:46;2.00;99.90
23385;DHT22;11865;45.394;10.978;2024-01-16T00:43:13;1.90;99.90
23385;DHT22;11865;45.394;10.978;2024-01-16T00:45:41;1.80;99.90
23385;DHT22;11865;45.394;10.978;2024-01-16T00:48:08;1.80;99.90
23385;DHT22;11865;45.394;10.978;2024-01-16T00:50:38;2.50;99.90
23385;DHT22;11865;45.394;10.978;2024-01-16T00:53:06;2.90;99.90
23385;DHT22;11865;45.394;10.978;2024-01-16T00:55:33;3.00;99.90
23385;DHT22;11865;45.394;10.978;2024-01-16T00:58:01;3.10;99.90
23385;DHT22;11865;45.394;10.978;2024-01-16T01:00:28;3.10;99.90
23385;DHT22;11865;45.394;10.978;2024-01-16T01:02:58;3.10;99.90
23385;DHT22;11865;45.394;10.978;2024-01-16T01:05:28;3.00;99.90
23385;DHT22;11865;45.394;10.978;2024-01-16T01:07:56;2.60;99.90
23385;DHT22;11865;45.394;10.978;2024-01-16T01:10:24;2.10;99.90
23385;DHT22;11865;45.394;10.978;2024-01-16T01:12:52;2.00;99.90
23385;DHT22;11865;45.394;10.978;2024-01-16T01:15:20;2.30;99.90
23385;DHT22;11865;45.394;10.978;2024-01-16T01:17:49;2.60;99.90
23385;DHT22;11865;45.394;10.978;2024-01-16T01:20:18;2.80;99.90
23385;DHT22;11865;45.394;10.978;2024-01-16T01:22:46;2.80;99.90
23385;DHT22;11865;45.394;10.978;2024-01-16T01:25:14;2.90;99.90
23385;DHT22;11865;45.394;10.978;2024-01-16T01:27:41;3.00;99.90
23385;DHT22;11865;45.394;10.978;2024-01-16T01:30:09;3.00;99.90
23385;DHT22;11865;45.394;10.978;2024-01-16T01:32:40;3.00;99.90
23385;DHT22;11865;45.394;10.978;2024-01-16T01:35:08;2.90;99.90
23385;DHT22;11865;45.394;10.978;2024-01-16T01:37:36;2.90;99.90
23385;DHT22;11865;45.394;10.978;2024-01-16T01:40:03;3.00;99.90
23385;DHT22;11865;45.394;10.978;2024-01-16T01:42:31;2.90;99.90
23385;DHT22;11865;45.394;10.978;2024-01-16T01:44:59;2.90;99.90
23385;DHT22;11865;45.394;10.978;2024-01-16T01:47:26;2.90;99.90
23385;DHT22;11865;45.394;10.978;2024-01-16T01:49:54;2.80;99.90
23385;DHT22;11865;45.394;10.978;2024-01-16T01:52:22;2.90;99.90
23385;DHT22;11865;45.394;10.978;2024-01-16T01:54:51;2.80;99.90
23385;DHT22;11865;45.394;10.978;2024-01-16T01:57:19;2.60;99.90
23385;DHT22;11865;45.394;10.978;2024-01-16T01:59:47;2.70;99.90
23385;DHT22;11865;45.394;10.978;2024-01-16T02:02:17;2.50;99.90
23385;DHT22;11865;45.394;10.978;2024-01-16T02:04:44;1.90;99.90
23385;DHT22;11865;45.394;10.978;2024-01-16T02:07:14;2.00;99.90
23385;DHT22;11865;45.394;10.978;2024-01-16T02:09:43;1.90;99.90
23385;DHT22;11865;45.394;10.978;2024-01-16T02:12:11;1.70;99.90
23385;DHT22;11865;45.394;10.978;2024-01-16T02:14:38;1.50;99.90
23385;DHT22;11865;45.394;10.978;2024-01-16T02:17:06;1.30;99.90
23385;DHT22;11865;45.394;10.978;2024-01-16T02:19:34;1.10;99.90
23385;DHT22;11865;45.394;10.978;2024-01-16T02:22:04;1.50;99.90
23385;DHT22;11865;45.394;10.978;2024-01-16T02:24:33;1.30;99.90
23385;DHT22;11865;45.394;10.978;2024-01-16T02:27:00;1.10;99.90
23385;DHT22;11865;45.394;10.978;2024-01-16T02:29:28;1.10;99.90
23385;DHT22;11865;45.394;10.978;2024-01-16T02:31:55;1.30;99.90
23385;DHT22;11865;45.394;10.978;2024-01-16T02:34:23;1.20;99.90
23385;DHT22;11865;45.394;10.978;2024-01-16T02:36:50;1.20;99.90
23385;DHT22;11865;45.394;10.978;2024-01-16T02:39:18;1.10;99.90
23385;DHT22;11865;45.394;10.978;2024-01-16T02:41:45;1.00;99.90
23385;DHT22;11865;45.394;10.978;2024-01-16T02:44:13;0.70;99.90
23385;DHT22;11865;45.394;10.978;2024-01-16T02:46:41;0.50;99.90
23385;DHT22;11865;45.394;10.978;2024-01-16T02:49:08;0.50;99.90
23385;DHT22;11865;45.394;10.978;2024-01-16T02:51:36;0.60;99.90
23385;DHT22;11865;45.394;10.978;2024-01-16T02:54:06;0.50;99.90
23385;DHT22;11865;45.394;10.978;2024-01-16T02:56:33;0.50;99.90
23385;DHT22;11865;45.394;10.978;2024-01-16T02:59:01;0.40;99.90
23385;DHT22;11865;45.394;10.978;2024-01-16T03:01:29;0.60;99.90
23385;DHT22;11865;45.394;10.978;2024-01-16T03:03:56;0.80;99.90
23385;DHT22;11865;45.394;10.978;2024-01-16T03:06:24;0.90;99.90
23385;DHT22;11865;45.394;10.978;2024-01-16T03:08:52;0.80;99.90
23385;DHT22;11865;45.394;10.978;2024-01-16T03:11:20;0.70;99.90
23385;DHT22;11865;45.394;10.978;2024-01-16T03:13:47;0.70;99.90
23385;DHT22;11865;45.394;10.978;2024-01-16T03:16:17;0.70;99.90
23385;DHT22;11865;45.394;10.978;2024-01-16T03:18:44;0.50;99.90
23385;DHT22;11865;45.394;10.978;2024-01-16T03:21:13;0.80;99.90
23385;DHT22;11865;45.394;10.978;2024-01-16T03:23:41;0.80;99.90
23385;DHT22;11865;45.394;10.978;2024-01-16T03:26:13;0.70;99.90
23385;DHT22;11865;45.394;10.978;2024-01-16T03:28:41;0.60;99.90
23385;DHT22;11865;45.394;10.978;2024-01-16T03:31:09;0.40;99.90
23385;DHT22;11865;45.394;10.978;2024-01-16T03:33:36;0.10;99.90
23385;DHT22;11865;45.394;10.978;2024-01-16T03:36:10;0.10;99.90
23385;DHT22;11865;45.394;10.978;2024-01-16T03:38:38;0.10;99.90
23385;DHT22;11865;45.394;10.978;2024-01-16T03:41:06;0.40;99.90
23385;DHT22;11865;45.394;10.978;2024-01-16T03:43:34;0.30;99.90
23385;DHT22;11865;45.394;10.978;2024-01-16T03:46:02;0.30;99.90
23385;DHT22;11865;45.394;10.978;2024-01-16T03:48:30;0.00;99.90
23385;DHT22;11865;45.394;10.978;2024-01-16T03:50:58;0.00;99.90
23385;DHT22;11865;45.394;10.978;2024-01-16T03:53:25;0.20;99.90
23385;DHT22;11865;45.394;10.978;2024-01-16T03:55:53;0.10;99.90
23385;DHT22;11865;45.394;10.978;2024-01-16T03:58:21;0.10;99.90
23385;DHT22;11865;45.394;10.978;2024-01-16T04:00:48;0.30;99.90
23385;DHT22;11865;45.394;10.978;2024-01-16T04:03:18;0.40;99.90
23385;DHT22;11865;45.394;10.978;2024-01-16T04:05:45;0.30;99.90
23385;DHT22;11865;45.394;10.978;2024-01-16T04:08:13;0.40;99.90
23385;DHT22;11865;45.394;10.978;2024-01-16T04:10:41;0.70;99.90
23385;DHT22;11865;45.394;10.978;2024-01-16T04:13:09;0.80;99.90
23385;DHT22;11865;45.394;10.978;2024-01-16T04:15:40;0.40;99.90
23385;DHT22;11865;45.394;10.978;2024-01-16T04:18:07;0.50;99.90
23385;DHT22;11865;45.394;10.978;2024-01-16T04:20:35;0.80;99.90
23385;DHT22;11865;45.394;10.978;2024-01-16T04:23:03;1.30;99.90
23385;DHT22;11865;45.394;10.978;2024-01-16T04:25:30;1.60;99.90
23385;DHT22;11865;45.394;10.978;2024-01-16T04:27:58;1.70;99.90
23385;DHT22;11865;45.394;10.978;2024-01-16T04:30:29;1.90;99.90
23385;DHT22;11865;45.394;10.978;2024-01-16T04:32:57;2.00;99.90
23385;DHT22;11865;45.394;10.978;2024-01-16T04:35:24;2.00;99.90
23385;DHT22;11865;45.394;10.978;2024-01-16T04:37:52;2.00;99.90
23385;DHT22;11865;45.394;10.978;2024-01-16T04:40:19;1.90;99.90
23385;DHT22;11865;45.394;10.978;2024-01-16T04:42:47;2.00;99.90
23385;DHT22;11865;45.394;10.978;2024-01-16T04:45:14;1.90;99.90
23385;DHT22;11865;45.394;10.978;2024-01-16T04:47:42;1.30;99.90
23385;DHT22;11865;45.394;10.978;2024-01-16T04:50:10;0.80;99.90
23385;DHT22;11865;45.394;10.978;2024-01-16T04:52:37;0.80;99.90
23385;DHT22;11865;45.394;10.978;2024-01-16T04:55:05;0.50;99.90
23385;DHT22;11865;45.394;10.978;2024-01-16T04:57:33;0.50;99.90
23385;DHT22;11865;45.394;10.978;2024-01-16T05:00:00;0.20;99.90
23385;DHT22;11865;45.394;10.978;2024-01-16T05:02:28;0.10;99.90
23385;DHT22;11865;45.394;10.978;2024-01-16T05:04:56;0.50;99.90
23385;DHT22;11865;45.394;10.978;2024-01-16T05:07:23;1.10;99.90
23385;DHT22;11865;45.394;10.978;2024-01-16T05:09:51;1.50;99.90
23385;DHT22;11865;45.394;10.978;2024-01-16T05:12:19;1.60;99.90
23385;DHT22;11865;45.394;10.978;2024-01-16T05:14:46;1.80;99.90
23385;DHT22;11865;45.394;10.978;2024-01-16T05:17:14;1.90;99.90
23385;DHT22;11865;45.394;10.978;2024-01-16T05:19:42;1.90;99.90
23385;DHT22;11865;45.394;10.978;2024-01-16T05:22:10;1.60;99.90
23385;DHT22;11865;45.394;10.978;2024-01-16T05:24:38;1.70;99.90
23385;DHT22;11865;45.394;10.978;2024-01-16T05:27:05;1.70;99.90
23385;DHT22;11865;45.394;10.978;2024-01-16T05:29:35;1.80;99.90
23385;DHT22;11865;45.394;10.978;2024-01-16T05:32:10;1.80;99.90
23385;DHT22;11865;45.394;10.978;2024-01-16T05:34:38;1.70;99.90
23385;DHT22;11865;45.394;10.978;2024-01-16T05:37:05;1.30;99.90
23385;DHT22;11865;45.394;10.978;2024-01-16T05:39:33;1.30;99.90
23385;DHT22;11865;45.394;10.978;2024-01-16T05:42:00;1.10;99.90
23385;DHT22;11865;45.394;10.978;2024-01-16T05:44:28;1.20;99.90
23385;DHT22;11865;45.394;10.978;2024-01-16T05:46:56;1.40;99.90
23385;DHT22;11865;45.394;10.978;2024-01-16T05:49:23;1.70;99.90
23385;DHT22;11865;45.394;10.978;2024-01-16T05:51:52;1.80;99.90
23385;DHT22;11865;45.394;10.978;2024-01-16T05:54:20;1.90;99.90
23385;DHT22;11865;45.394;10.978;2024-01-16T05:56:47;1.40;99.90
23385;DHT22;11865;45.394;10.978;2024-01-16T05:59:15;1.40;99.90
23385;DHT22;11865;45.394;10.978;2024-01-16T06:01:43;1.70;99.90
23385;DHT22;11865;45.394;10.978;2024-01-16T06:04:10;1.90;99.90
23385;DHT22;11865;45.394;10.978;2024-01-16T06:06:41;1.80;99.90
23385;DHT22;11865;45.394;10.978;2024-01-16T06:09:12;1.60;99.90
23385;DHT22;11865;45.394;10.978;2024-01-16T06:11:41;1.40;99.90
23385;DHT22;11865;45.394;10.978;2024-01-16T06:14:09;1.30;99.90
23385;DHT22;11865;45.394;10.978;2024-01-16T06:16:37;1.60;99.90
23385;DHT22;11865;45.394;10.978;2024-01-16T06:19:04;1.80;99.90
23385;DHT22;11865;45.394;10.978;2024-01-16T06:21:32;1.90;99.90
23385;DHT22;11865;45.394;10.978;2024-01-16T06:24:00;1.90;99.90
23385;DHT22;11865;45.394;10.978;2024-01-16T06:26:27;1.90;99.90
23385;DHT22;11865;45.394;10.978;2024-01-16T06:28:55;2.00;99.90
23385;DHT22;11865;45.394;10.978;2024-01-16T06:31:22;2.00;99.90
23385;DHT22;11865;45.394;10.978;2024-01-16T06:33:52;2.00;99.90
23385;DHT22;11865;45.394;10.978;2024-01-16T06:36:20;1.90;99.90
23385;DHT22;11865;45.394;10.978;2024-01-16T06:38:48;1.70;99.90
23385;DHT22;11865;45.394;10.978;2024-01-16T06:41:15;1.50;99.90
23385;DHT22;11865;45.394;10.978;2024-01-16T06:43:43;1.10;99.90
23385;DHT22;11865;45.394;10.978;2024-01-16T06:46:10;1.10;99.90
23385;DHT22;11865;45.394;10.978;2024-01-16T06:48:38;1.10;99.90
23385;DHT22;11865;45.394;10.978;2024-01-16T06:51:06;1.10;99.90
23385;DHT22;11865;45.394;10.978;2024-01-16T06:53:35;0.80;99.90
23385;DHT22;11865;45.394;10.978;2024-01-16T06:56:05;0.60;99.90
23385;DHT22;11865;45.394;10.978;2024-01-16T06:58:34;0.40;99.90
23385;DHT22;11865;45.394;10.978;2024-01-16T07:01:03;0.40;99.90
23385;DHT22;11865;45.394;10.978;2024-01-16T07:03:31;0.10;99.90
23385;DHT22;11865;45.394;10.978;2024-01-16T07:05:58;0.10;99.90
23385;DHT22;11865;45.394;10.978;2024-01-16T07:08:26;0.20;99.90
23385;DHT22;11865;45.394;10.978;2024-01-16T07:10:54;0.20;99.90
23385;DHT22;11865;45.394;10.978;2024-01-16T07:13:22;0.30;99.90
23385;DHT22;11865;45.394;10.978;2024-01-16T07:15:49;0.30;99.90
23385;DHT22;11865;45.394;10.978;2024-01-16T07:18:17;0.50;99.90
23385;DHT22;11865;45.394;10.978;2024-01-16T07:20:46;0.40;99.90
23385;DHT22;11865;45.394;10.978;2024-01-16T07:23:14;0.50;99.90
23385;DHT22;11865;45.394;10.978;2024-01-16T07:25:41;0.30;99.90
23385;DHT22;11865;45.394;10.978;2024-01-16T07:28:09;0.50;99.90
23385;DHT22;11865;45.394;10.978;2024-01-16T07:30:37;0.60;99.90
23385;DHT22;11865;45.394;10.978;2024-01-16T07:33:04;0.60;99.90
23385;DHT22;11865;45.394;10.978;2024-01-16T07:35:32;0.60;99.90
23385;DHT22;11865;45.394;10.978;2024-01-16T07:37:59;1.00;99.90
23385;DHT22;11865;45.394;10.978;2024-01-16T07:40:31;1.30;99.90
23385;DHT22;11865;45.394;10.978;2024-01-16T07:42:59;1.70;99.90
23385;DHT22;11865;45.394;10.978;2024-01-16T07:45:26;1.70;99.90
23385;DHT22;11865;45.394;10.978;2024-01-16T07:47:54;1.40;99.90
23385;DHT22;11865;45.394;10.978;2024-01-16T07:50:21;1.60;99.90
23385;DHT22;11865;45.394;10.978;2024-01-16T07:52:49;1.40;99.90
23385;DHT22;11865;45.394;10.978;2024-01-16T07:55:17;1.50;99.90
23385;DHT22;11865;45.394;10.978;2024-01-16T07:57:49;1.50;99.90
23385;DHT22;11865;45.394;10.978;2024-01-16T08:00:17;1.60;99.90
23385;DHT22;11865;45.394;10.978;2024-01-16T08:02:45;1.90;99.90
23385;DHT22;11865;45.394;10.978;2024-01-16T08:05:12;2.30;99.90
23385;DHT22;11865;45.394;10.978;2024-01-16T08:07:42;2.30;99.90
23385;DHT22;11865;45.394;10.978;2024-01-16T08:10:11;2.40;99.90
23385;DHT22;11865;45.394;10.978;2024-01-16T08:12:38;2.40;99.90
23385;DHT22;11865;45.394;10.978;2024-01-16T08:15:06;2.50;99.90
23385;DHT22;11865;45.394;10.978;2024-01-16T08:17:35;2.60;99.90
23385;DHT22;11865;45.394;10.978;2024-01-16T08:20:03;2.70;99.90
23385;DHT22;11865;45.394;10.978;2024-01-16T08:22:30;2.70;99.90
23385;DHT22;11865;45.394;10.978;2024-01-16T08:24:58;2.80;99.90
23385;DHT22;11865;45.394;10.978;2024-01-16T08:27:26;2.70;99.90
23385;DHT22;11865;45.394;10.978;2024-01-16T08:29:53;2.60;99.90
23385;DHT22;11865;45.394;10.978;2024-01-16T08:32:21;2.50;99.90
23385;DHT22;11865;45.394;10.978;2024-01-16T08:34:49;2.30;99.90
23385;DHT22;11865;45.394;10.978;2024-01-16T08:37:16;2.40;99.90
23385;DHT22;11865;45.394;10.978;2024-01-16T08:39:44;2.60;99.90
23385;DHT22;11865;45.394;10.978;2024-01-16T08:42:11;2.70;99.90
23385;DHT22;11865;45.394;10.978;2024-01-16T08:44:39;2.60;99.90
23385;DHT22;11865;45.394;10.978;2024-01-16T08:47:07;2.70;99.90
23385;DHT22;11865;45.394;10.978;2024-01-16T08:49:35;2.60;99.90
23385;DHT22;11865;45.394;10.978;2024-01-16T08:52:03;2.70;99.90
23385;DHT22;11865;45.394;10.978;2024-01-16T08:54:30;2.80;99.90
23385;DHT22;11865;45.394;10.978;2024-01-16T08:56:58;3.00;99.90
23385;DHT22;11865;45.394;10.978;2024-01-16T08:59:25;3.10;99.90
23385;DHT22;11865;45.394;10.978;2024-01-16T09:01:53;3.30;99.90
23385;DHT22;11865;45.394;10.978;2024-01-16T09:04:21;3.60;99.90
23385;DHT22;11865;45.394;10.978;2024-01-16T09:06:48;3.70;99.90
23385;DHT22;11865;45.394;10.978;2024-01-16T09:09:16;3.80;99.90
23385;DHT22;11865;45.394;10.978;2024-01-16T09:11:44;4.00;99.90
23385;DHT22;11865;45.394;10.978;2024-01-16T09:14:11;4.20;99.90
23385;DHT22;11865;45.394;10.978;2024-01-16T09:16:39;4.30;99.90
23385;DHT22;11865;45.394;10.978;2024-01-16T09:19:08;4.40;99.90
23385;DHT22;11865;45.394;10.978;2024-01-16T09:21:36;4.40;99.90
23385;DHT22;11865;45.394;10.978;2024-01-16T09:24:04;4.50;99.90
23385;DHT22;11865;45.394;10.978;2024-01-16T09:26:32;4.60;99.90
23385;DHT22;11865;45.394;10.978;2024-01-16T09:28:59;4.50;99.90
23385;DHT22;11865;45.394;10.978;2024-01-16T09:31:27;4.50;99.90
23385;DHT22;11865;45.394;10.978;2024-01-16T09:33:54;4.60;99.90
23385;DHT22;11865;45.394;10.978;2024-01-16T09:36:22;4.60;99.90
23385;DHT22;11865;45.394;10.978;2024-01-16T09:38:50;4.70;99.90
23385;DHT22;11865;45.394;10.978;2024-01-16T09:41:17;4.80;99.90
23385;DHT22;11865;45.394;10.978;2024-01-16T09:43:47;4.90;99.90
23385;DHT22;11865;45.394;10.978;2024-01-16T09:46:15;4.90;99.90
23385;DHT22;11865;45.394;10.978;2024-01-16T09:48:44;5.00;99.90
23385;DHT22;11865;45.394;10.978;2024-01-16T09:51:12;5.10;99.90
23385;DHT22;11865;45.394;10.978;2024-01-16T09:53:44;5.20;99.90
23385;DHT22;11865;45.394;10.978;2024-01-16T09:56:16;5.30;99.90
23385;DHT22;11865;45.394;10.978;2024-01-16T09:58:44;5.40;99.90
23385;DHT22;11865;45.394;10.978;2024-01-16T10:01:15;5.50;99.90
23385;DHT22;11865;45.394;10.978;2024-01-16T10:03:46;5.70;99.90
23385;DHT22;11865;45.394;10.978;2024-01-16T10:06:15;5.70;99.90
23385;DHT22;11865;45.394;10.978;2024-01-16T10:08:44;5.70;99.90
23385;DHT22;11865;45.394;10.978;2024-01-16T10:11:12;5.90;99.90
23385;DHT22;11865;45.394;10.978;2024-01-16T10:13:39;6.00;99.90
23385;DHT22;11865;45.394;10.978;2024-01-16T10:16:08;6.10;99.90
23385;DHT22;11865;45.394;10.978;2024-01-16T10:18:36;6.30;99.90
23385;DHT22;11865;45.394;10.978;2024-01-16T10:21:22;6.40;99.50
23385;DHT22;11865;45.394;10.978;2024-01-16T10:23:50;6.60;99.10
23385;DHT22;11865;45.394;10.978;2024-01-16T10:26:17;6.70;98.60
23385;DHT22;11865;45.394;10.978;2024-01-16T10:28:48;6.80;98.40
23385;DHT22;11865;45.394;10.978;2024-01-16T10:31:15;7.00;98.30
23385;DHT22;11865;45.394;10.978;2024-01-16T10:33:43;7.10;97.80
23385;DHT22;11865;45.394;10.978;2024-01-16T10:36:15;7.10;97.80
23385;DHT22;11865;45.394;10.978;2024-01-16T10:38:45;7.20;97.90
23385;DHT22;11865;45.394;10.978;2024-01-16T10:41:14;7.20;97.80
23385;DHT22;11865;45.394;10.978;2024-01-16T10:43:43;7.30;97.70
23385;DHT22;11865;45.394;10.978;2024-01-16T10:46:14;7.50;97.10
23385;DHT22;11865;45.394;10.978;2024-01-16T10:48:44;7.80;97.30
23385;DHT22;11865;45.394;10.978;2024-01-16T10:51:17;8.00;98.30
23385;DHT22;11865;45.394;10.978;2024-01-16T10:53:45;8.00;96.90
23385;DHT22;11865;45.394;10.978;2024-01-16T10:56:17;8.00;97.00
23385;DHT22;11865;45.394;10.978;2024-01-16T10:58:45;8.10;98.20
23385;DHT22;11865;45.394;10.978;2024-01-16T11:01:19;8.10;98.20
23385;DHT22;11865;45.394;10.978;2024-01-16T11:03:48;8.20;97.60
23385;DHT22;11865;45.394;10.978;2024-01-16T11:06:17;8.10;96.10
23385;DHT22;11865;45.394;10.978;2024-01-16T11:08:47;8.20;95.30
23385;DHT22;11865;45.394;10.978;2024-01-16T11:11:15;8.30;95.60
23385;DHT22;11865;45.394;10.978;2024-01-16T11:13:45;8.20;96.80
23385;DHT22;11865;45.394;10.978;2024-01-16T11:16:14;8.30;96.60
23385;DHT22;11865;45.394;10.978;2024-01-16T11:18:41;8.60;94.10
23385;DHT22;11865;45.394;10.978;2024-01-16T11:21:12;8.80;93.50
23385;DHT22;11865;45.394;10.978;2024-01-16T11:23:45;9.00;93.30
23385;DHT22;11865;45.394;10.978;2024-01-16T11:26:27;9.20;91.40
23385;DHT22;11865;45.394;10.978;2024-01-16T11:28:56;9.30;87.30
23385;DHT22;11865;45.394;10.978;2024-01-16T11:33:55;9.20;83.80
23385;DHT22;11865;45.394;10.978;2024-01-16T11:39:17;9.10;80.60
23385;DHT22;11865;45.394;10.978;2024-01-16T11:41:56;9.10;81.20
23385;DHT22;11865;45.394;10.978;2024-01-16T11:44:50;9.20;80.40
23385;DHT22;11865;45.394;10.978;2024-01-16T11:47:22;9.30;80.40
23385;DHT22;11865;45.394;10.978;2024-01-16T11:50:11;9.20;77.50
23385;DHT22;11865;45.394;10.978;2024-01-16T11:52:43;9.30;77.80
23385;DHT22;11865;45.394;10.978;2024-01-16T11:55:32;9.40;77.50
23385;DHT22;11865;45.394;10.978;2024-01-16T12:00:54;9.60;78.20
23385;DHT22;11865;45.394;10.978;2024-01-16T12:03:24;9.60;78.80
23385;DHT22;11865;45.394;10.978;2024-01-16T12:06:02;9.70;81.50
23385;DHT22;11865;45.394;10.978;2024-01-16T12:08:31;9.60;81.90
23385;DHT22;11865;45.394;10.978;2024-01-16T12:10:59;9.70;81.00
23385;DHT22;11865;45.394;10.978;2024-01-16T12:13:29;9.60;80.00
23385;DHT22;11865;45.394;10.978;2024-01-16T12:16:02;9.70;80.40
23385;DHT22;11865;45.394;10.978;2024-01-16T12:18:31;9.80;78.20
23385;DHT22;11865;45.394;10.978;2024-01-16T12:21:11;9.80;76.80
23385;DHT22;11865;45.394;10.978;2024-01-16T12:23:39;9.50;77.00
23385;DHT22;11865;45.394;10.978;2024-01-16T12:26:22;9.30;77.10
23385;DHT22;11865;45.394;10.978;2024-01-16T12:28:52;9.40;76.50
23385;DHT22;11865;45.394;10.978;2024-01-16T12:31:29;9.50;77.30
23385;DHT22;11865;45.394;10.978;2024-01-16T12:34:07;9.50;76.20
23385;DHT22;11865;45.394;10.978;2024-01-16T12:36:37;9.60;75.00
23385;DHT22;11865;45.394;10.978;2024-01-16T12:39:05;9.70;75.80
23385;DHT22;11865;45.394;10.978;2024-01-16T12:41:43;9.80;75.20
23385;DHT22;11865;45.394;10.978;2024-01-16T12:44:13;9.70;74.70
23385;DHT22;11865;45.394;10.978;2024-01-16T12:46:57;9.80;75.70
23385;DHT22;11865;45.394;10.978;2024-01-16T12:49:25;9.80;74.70
23385;DHT22;11865;45.394;10.978;2024-01-16T12:52:19;9.90;75.10
23385;DHT22;11865;45.394;10.978;2024-01-16T12:54:48;9.90;74.80
23385;DHT22;11865;45.394;10.978;2024-01-16T12:57:18;9.80;73.80
23385;DHT22;11865;45.394;10.978;2024-01-16T12:59:47;9.90;73.90
23385;DHT22;11865;45.394;10.978;2024-01-16T13:02:24;9.90;73.80
23385;DHT22;11865;45.394;10.978;2024-01-16T13:04:59;10.10;74.80
23385;DHT22;11865;45.394;10.978;2024-01-16T13:07:28;10.10;75.70
23385;DHT22;11865;45.394;10.978;2024-01-16T13:10:07;9.80;74.40
23385;DHT22;11865;45.394;10.978;2024-01-16T13:12:36;9.80;75.40
23385;DHT22;11865;45.394;10.978;2024-01-16T13:15:04;9.80;76.00
23385;DHT22;11865;45.394;10.978;2024-01-16T13:17:35;9.70;75.90
23385;DHT22;11865;45.394;10.978;2024-01-16T13:20:03;9.80;75.90
23385;DHT22;11865;45.394;10.978;2024-01-16T13:22:34;9.90;76.30
23385;DHT22;11865;45.394;10.978;2024-01-16T13:25:12;9.80;75.10
23385;DHT22;11865;45.394;10.978;2024-01-16T13:27:40;10.00;76.00
23385;DHT22;11865;45.394;10.978;2024-01-16T13:30:08;10.00;75.60
23385;DHT22;11865;45.394;10.978;2024-01-16T13:32:36;10.20;76.00
23385;DHT22;11865;45.394;10.978;2024-01-16T13:35:05;10.50;76.40
23385;DHT22;11865;45.394;10.978;2024-01-16T13:37:36;10.20;74.70
23385;DHT22;11865;45.394;10.978;2024-01-16T13:40:06;10.20;75.00
23385;DHT22;11865;45.394;10.978;2024-01-16T13:42:43;10.10;73.10
23385;DHT22;11865;45.394;10.978;2024-01-16T13:45:11;9.90;74.30
23385;DHT22;11865;45.394;10.978;2024-01-16T13:47:41;10.00;75.00
23385;DHT22;11865;45.394;10.978;2024-01-16T13:50:09;10.00;75.10
23385;DHT22;11865;45.394;10.978;2024-01-16T13:52:37;10.00;74.80
23385;DHT22;11865;45.394;10.978;2024-01-16T13:55:06;10.00;75.80
23385;DHT22;11865;45.394;10.978;2024-01-16T13:57:34;10.10;75.60
23385;DHT22;11865;45.394;10.978;2024-01-16T14:00:07;9.90;75.00
23385;DHT22;11865;45.394;10.978;2024-01-16T14:02:38;9.90;74.90
23385;DHT22;11865;45.394;10.978;2024-01-16T14:05:08;10.00;76.40
23385;DHT22;11865;45.394;10.978;2024-01-16T14:07:39;9.90;76.30
23385;DHT22;11865;45.394;10.978;2024-01-16T14:10:10;10.00;76.70
23385;DHT22;11865;45.394;10.978;2024-01-16T14:12:43;9.90;78.80
23385;DHT22;11865;45.394;10.978;2024-01-16T14:15:13;10.00;80.40
23385;DHT22;11865;45.394;10.978;2024-01-16T14:17:47;9.90;79.30
23385;DHT22;11865;45.394;10.978;2024-01-16T14:20:17;9.90;80.80
23385;DHT22;11865;45.394;10.978;2024-01-16T14:22:45;9.80;80.30
23385;DHT22;11865;45.394;10.978;2024-01-16T14:25:13;9.80;80.30
23385;DHT22;11865;45.394;10.978;2024-01-16T14:27:43;9.80;81.40
23385;DHT22;11865;45.394;10.978;2024-01-16T14:30:12;9.80;81.90
23385;DHT22;11865;45.394;10.978;2024-01-16T14:32:42;9.80;82.10
23385;DHT22;11865;45.394;10.978;2024-01-16T14:35:11;9.80;85.00
23385;DHT22;11865;45.394;10.978;2024-01-16T14:37:40;9.60;82.50
23385;DHT22;11865;45.394;10.978;2024-01-16T14:40:08;9.50;85.00
23385;DHT22;11865;45.394;10.978;2024-01-16T14:42:53;9.50;85.10
23385;DHT22;11865;45.394;10.978;2024-01-16T14:45:21;9.40;86.50
23385;DHT22;11865;45.394;10.978;2024-01-16T14:47:49;9.30;87.00
23385;DHT22;11865;45.394;10.978;2024-01-16T14:50:18;9.20;86.50
23385;DHT22;11865;45.394;10.978;2024-01-16T14:52:46;9.00;85.40
23385;DHT22;11865;45.394;10.978;2024-01-16T14:55:18;8.90;86.70
23385;DHT22;11865;45.394;10.978;2024-01-16T14:57:48;9.00;88.50
23385;DHT22;11865;45.394;10.978;2024-01-16T15:00:20;8.90;86.50
23385;DHT22;11865;45.394;10.978;2024-01-16T15:02:50;8.90;84.90
23385;DHT22;11865;45.394;10.978;2024-01-16T15:05:19;8.90;85.70
23385;DHT22;11865;45.394;10.978;2024-01-16T15:07:48;8.80;83.70
23385;DHT22;11865;45.394;10.978;2024-01-16T15:10:15;8.80;84.70
23385;DHT22;11865;45.394;10.978;2024-01-16T15:12:45;8.70;87.50
23385;DHT22;11865;45.394;10.978;2024-01-16T15:15:14;8.60;84.30
23385;DHT22;11865;45.394;10.978;2024-01-16T15:17:43;8.70;84.60
23385;DHT22;11865;45.394;10.978;2024-01-16T15:20:11;8.70;85.70
23385;DHT22;11865;45.394;10.978;2024-01-16T15:22:43;8.60;87.40
23385;DHT22;11865;45.394;10.978;2024-01-16T15:25:15;8.60;85.90
23385;DHT22;11865;45.394;10.978;2024-01-16T15:27:45;8.50;85.50
23385;DHT22;11865;45.394;10.978;2024-01-16T15:30:13;8.50;84.80
23385;DHT22;11865;45.394;10.978;2024-01-16T15:32:41;8.50;85.40
23385;DHT22;11865;45.394;10.978;2024-01-16T15:35:09;8.60;85.40
23385;DHT22;11865;45.394;10.978;2024-01-16T15:37:38;8.60;85.50
23385;DHT22;11865;45.394;10.978;2024-01-16T15:40:06;8.50;85.50
23385;DHT22;11865;45.394;10.978;2024-01-16T15:42:34;8.50;90.50
23385;DHT22;11865;45.394;10.978;2024-01-16T15:45:06;8.40;90.50
23385;DHT22;11865;45.394;10.978;2024-01-16T15:47:35;8.40;90.20
23385;DHT22;11865;45.394;10.978;2024-01-16T15:50:04;8.30;91.30